Terminal Aerodrome Forecast
Issued by NWS Sterling, VA

Current Version | Previous Version | Graphics & Text | Print | Product List | Glossary On
Versions: 1 2 3 4 5 6 7 8 9 10 11 12 13 14 15 16 17 18 19 20 21 22 23 24 25 26 27
000
FTUS41 KLWX 281134
TAFIAD
TAF
KIAD 281134Z 2812/2918 09006KT 2SM -SHRA BR OVC008
     FM281800 08008KT P6SM OVC010
     FM290600 07005KT 3SM -DZ BR BKN008
     FM291500 08006KT P6SM OVC010=

USA.gov is the U.S. government's official web portal to all federal, state and local government web resources and services.